createdAt,value
2018-09-05T00:00:19.774Z,35.40
2018-09-05T00:00:55.373Z,38.10
2018-09-05T00:01:30.879Z,36.20
2018-09-05T00:02:06.092Z,37.40
2018-09-05T00:02:41.709Z,40.00
2018-09-05T00:03:17.233Z,39.70
2018-09-05T00:03:52.527Z,38.60
2018-09-05T00:04:27.925Z,41.50
2018-09-05T00:05:03.439Z,47.90
2018-09-05T00:05:38.726Z,47.30
2018-09-05T00:06:14.046Z,43.80
2018-09-05T00:06:49.155Z,40.70
2018-09-05T00:07:24.786Z,42.00
2018-09-05T00:08:00.127Z,38.00
2018-09-05T00:08:35.318Z,41.40
2018-09-05T00:09:10.810Z,40.00
2018-09-05T00:09:46.100Z,43.00
2018-09-05T00:10:21.536Z,41.50
2018-09-05T00:10:57.686Z,41.30
2018-09-05T00:11:33.089Z,41.80
2018-09-05T00:12:08.599Z,40.50
2018-09-05T00:12:44.010Z,43.90
2018-09-05T00:13:19.247Z,42.20
2018-09-05T00:13:54.476Z,39.90
2018-09-05T00:14:29.590Z,40.30
2018-09-05T00:15:04.814Z,41.40
2018-09-05T00:15:40.985Z,41.00
2018-09-05T00:16:16.500Z,44.80
2018-09-05T00:16:52.404Z,49.80
2018-09-05T00:17:27.553Z,46.80
2018-09-05T00:18:03.092Z,40.00
2018-09-05T00:18:38.491Z,37.80
2018-09-05T00:19:13.758Z,35.90
2018-09-05T00:19:48.928Z,37.30
2018-09-05T00:20:24.245Z,39.60
2018-09-05T00:20:59.438Z,41.90
2018-09-05T00:21:34.645Z,47.70
2018-09-05T00:22:10.077Z,43.60
2018-09-05T00:22:45.361Z,43.70
2018-09-05T00:23:20.767Z,41.30
2018-09-05T00:23:55.988Z,40.10
2018-09-05T00:24:31.399Z,39.40
2018-09-05T00:25:06.507Z,41.10
2018-09-05T00:25:42.139Z,44.90
2018-09-05T00:26:17.356Z,41.20
2018-09-05T00:26:52.851Z,39.80
2018-09-05T00:27:28.154Z,42.00
2018-09-05T00:28:03.471Z,41.70
2018-09-05T00:28:39.562Z,42.00
2018-09-05T00:29:14.918Z,40.90
2018-09-05T00:29:50.432Z,44.50
2018-09-05T00:30:25.773Z,40.80
2018-09-05T00:31:01.391Z,40.50
2018-09-05T00:31:36.891Z,40.90
2018-09-05T00:32:12.106Z,40.30
2018-09-05T00:32:47.301Z,39.50
2018-09-05T00:33:22.609Z,38.50
2018-09-05T00:33:57.919Z,40.70
2018-09-05T00:34:33.348Z,42.30
2018-09-05T00:35:08.844Z,42.60
2018-09-05T00:35:44.267Z,44.80
2018-09-05T00:36:19.588Z,44.40
2018-09-05T00:36:54.604Z,41.30
2018-09-05T00:37:29.908Z,47.30
2018-09-05T00:38:05.199Z,47.00
2018-09-05T00:38:40.618Z,41.50
2018-09-05T00:39:15.832Z,41.70
2018-09-05T00:39:51.349Z,43.50
2018-09-05T00:40:27.075Z,46.30
2018-09-05T00:41:02.402Z,44.10
2018-09-05T00:41:37.817Z,45.50
2018-09-05T00:42:13.195Z,47.50
2018-09-05T00:42:48.446Z,41.50
2018-09-05T00:43:23.669Z,40.60
2018-09-05T00:43:58.775Z,45.00
2018-09-05T00:44:34.097Z,41.70
2018-09-05T00:45:09.237Z,41.70
2018-09-05T00:45:46.780Z,45.60
2018-09-05T00:46:21.977Z,46.60
2018-09-05T00:46:57.656Z,43.60
2018-09-05T00:47:32.863Z,43.90
2018-09-05T00:48:08.295Z,42.50
2018-09-05T00:48:43.619Z,41.10
2018-09-05T00:49:18.859Z,43.20
2018-09-05T00:49:53.833Z,43.50
2018-09-05T00:50:29.367Z,41.30
2018-09-05T00:51:04.575Z,42.20
2018-09-05T00:51:39.796Z,42.90
2018-09-05T00:52:15.305Z,41.90
2018-09-05T00:52:50.676Z,48.30
2018-09-05T00:53:26.095Z,50.20
2018-09-05T00:54:01.593Z,44.10
2018-09-05T00:54:37.204Z,42.40
2018-09-05T00:55:12.608Z,42.00
2018-09-05T00:55:47.947Z,42.50
2018-09-05T00:56:23.191Z,45.30
2018-09-05T00:56:58.381Z,47.90
2018-09-05T00:57:33.683Z,43.50
2018-09-05T00:58:08.983Z,43.60
2018-09-05T00:58:44.619Z,43.20
2018-09-05T00:59:19.855Z,41.50
2018-09-05T00:59:55.166Z,39.00
2018-09-05T01:00:30.385Z,41.70
2018-09-05T01:01:05.804Z,45.10
2018-09-05T01:01:41.021Z,45.10
2018-09-05T01:02:16.235Z,46.60
2018-09-05T01:02:51.520Z,42.50
2018-09-05T01:03:26.841Z,43.20
2018-09-05T01:04:02.314Z,40.90
2018-09-05T01:04:37.422Z,39.70
2018-09-05T01:05:12.715Z,43.70
2018-09-05T01:05:48.027Z,44.90
2018-09-05T01:06:23.190Z,42.00
2018-09-05T01:06:58.869Z,43.70
2018-09-05T01:07:34.279Z,47.40
2018-09-05T01:08:09.679Z,46.60
2018-09-05T01:08:44.995Z,39.30
2018-09-05T01:09:20.195Z,41.40
2018-09-05T01:09:55.490Z,43.60
2018-09-05T01:10:30.708Z,45.10
2018-09-05T01:11:05.802Z,42.00
2018-09-05T01:11:41.073Z,38.40
2018-09-05T01:12:16.679Z,40.30
2018-09-05T01:12:52.072Z,41.90
2018-09-05T01:13:27.479Z,43.70
2018-09-05T01:14:02.874Z,46.00
2018-09-05T01:14:38.295Z,45.40
2018-09-05T01:15:13.404Z,43.80
2018-09-05T01:15:48.914Z,45.00
2018-09-05T01:16:24.617Z,43.10
2018-09-05T01:16:59.923Z,41.80
2018-09-05T01:17:35.170Z,43.60
2018-09-05T01:18:10.564Z,43.10
2018-09-05T01:18:45.794Z,39.80
2018-09-05T01:19:21.137Z,41.00
2018-09-05T01:19:56.519Z,45.50
2018-09-05T01:20:31.946Z,46.00
2018-09-05T01:21:07.235Z,42.60
2018-09-05T01:21:42.531Z,48.00
2018-09-05T01:22:17.883Z,44.90
2018-09-05T01:22:53.184Z,45.40
2018-09-05T01:23:28.617Z,44.30
2018-09-05T01:24:04.007Z,42.40
2018-09-05T01:24:39.608Z,42.10
2018-09-05T01:25:14.784Z,43.30
2018-09-05T01:25:49.983Z,41.60
2018-09-05T01:26:25.289Z,42.00
2018-09-05T01:27:00.306Z,41.40
2018-09-05T01:27:35.957Z,41.90
2018-09-05T01:28:11.306Z,48.30
2018-09-05T01:28:46.922Z,56.00
2018-09-05T01:29:22.149Z,50.10
2018-09-05T01:29:57.472Z,41.70
2018-09-05T01:30:32.667Z,42.10
2018-09-05T01:31:08.212Z,45.50
2018-09-05T01:31:43.665Z,44.30
2018-09-05T01:32:18.838Z,44.20
2018-09-05T01:32:54.514Z,42.60
2018-09-05T01:33:29.625Z,43.40
2018-09-05T01:34:05.038Z,46.20
2018-09-05T01:34:40.768Z,48.10
2018-09-05T01:35:16.560Z,45.40
2018-09-05T01:35:52.079Z,44.60
2018-09-05T01:36:27.398Z,43.90
2018-09-05T01:37:02.824Z,41.40
2018-09-05T01:37:38.104Z,42.70
2018-09-05T01:38:13.181Z,41.70
2018-09-05T01:38:48.487Z,37.70
2018-09-05T01:39:24.024Z,40.30
2018-09-05T01:39:59.517Z,43.20
2018-09-05T01:40:34.703Z,43.90
2018-09-05T01:41:09.912Z,43.20
2018-09-05T01:41:45.134Z,40.50
2018-09-05T01:42:20.316Z,44.20
2018-09-05T01:42:55.710Z,46.10
2018-09-05T01:43:30.817Z,43.90
2018-09-05T01:44:06.149Z,43.40
2018-09-05T01:44:41.358Z,42.30
2018-09-05T01:45:16.537Z,48.30
2018-09-05T01:45:51.840Z,52.90
2018-09-05T01:46:27.354Z,45.30
2018-09-05T01:47:02.598Z,46.70
2018-09-05T01:47:38.110Z,47.60
2018-09-05T01:48:13.336Z,46.40
2018-09-05T01:48:48.636Z,44.90
2018-09-05T01:49:24.034Z,41.00
2018-09-05T01:49:59.447Z,38.10
2018-09-05T01:50:34.945Z,40.10
2018-09-05T01:51:10.277Z,46.50
2018-09-05T01:51:45.886Z,42.20
2018-09-05T01:52:21.380Z,40.70
2018-09-05T01:52:56.809Z,43.80
2018-09-05T01:53:32.047Z,44.70
2018-09-05T01:54:07.364Z,44.00
2018-09-05T01:54:42.607Z,45.60
2018-09-05T01:55:18.016Z,44.00
2018-09-05T01:55:53.259Z,44.60
2018-09-05T01:56:28.546Z,48.90
2018-09-05T01:57:03.967Z,47.70
2018-09-05T01:57:39.050Z,42.50
2018-09-05T01:58:14.657Z,41.20
2018-09-05T01:58:50.127Z,44.00
2018-09-05T01:59:25.322Z,43.60
2018-09-05T02:00:00.750Z,38.50
2018-09-05T02:00:36.417Z,43.50
2018-09-05T02:01:11.599Z,45.60
2018-09-05T02:01:47.006Z,49.80
2018-09-05T02:02:22.127Z,48.40
2018-09-05T02:02:57.543Z,46.60
2018-09-05T02:03:33.126Z,49.90
2018-09-05T02:04:08.362Z,46.70
2018-09-05T02:04:43.700Z,44.10
2018-09-05T02:05:19.203Z,45.30
2018-09-05T02:05:54.320Z,44.10
2018-09-05T02:06:29.434Z,42.80
2018-09-05T02:07:04.929Z,45.60
2018-09-05T02:07:40.144Z,50.80
2018-09-05T02:08:15.759Z,46.60
2018-09-05T02:08:51.505Z,45.10
2018-09-05T02:09:26.738Z,43.60
2018-09-05T02:10:01.967Z,41.80
2018-09-05T02:10:37.169Z,42.70
2018-09-05T02:11:12.564Z,40.50
2018-09-05T02:11:47.961Z,42.90
2018-09-05T02:12:23.355Z,46.20
2018-09-05T02:12:58.964Z,45.60
2018-09-05T02:13:34.415Z,42.40
2018-09-05T02:14:09.807Z,47.70
2018-09-05T02:14:45.156Z,45.90
2018-09-05T02:15:20.542Z,49.50
2018-09-05T02:15:56.176Z,47.40
2018-09-05T02:16:31.489Z,45.10
2018-09-05T02:17:06.726Z,54.20
2018-09-05T02:17:41.961Z,61.10
2018-09-05T02:18:17.162Z,57.00
2018-09-05T02:18:52.786Z,44.80
2018-09-05T02:19:28.170Z,47.40
2018-09-05T02:20:03.811Z,52.80
2018-09-05T02:20:38.897Z,52.80
2018-09-05T02:21:14.308Z,51.50
2018-09-05T02:21:49.557Z,50.80
2018-09-05T02:22:24.812Z,48.90
2018-09-05T02:23:00.124Z,50.00
2018-09-05T02:23:35.496Z,45.90
2018-09-05T02:24:10.922Z,46.40
2018-09-05T02:24:46.448Z,46.90
2018-09-05T02:25:21.700Z,48.50
2018-09-05T02:25:57.234Z,47.20
2018-09-05T02:26:32.654Z,47.10
2018-09-05T02:27:07.858Z,45.90
2018-09-05T02:27:43.260Z,48.40
2018-09-05T02:28:18.376Z,49.20
2018-09-05T02:28:53.791Z,46.60
2018-09-05T02:29:29.178Z,48.50
2018-09-05T02:30:04.395Z,47.60
2018-09-05T02:30:39.808Z,45.50
2018-09-05T02:31:15.214Z,46.90
2018-09-05T02:31:50.859Z,45.20
2018-09-05T02:32:26.237Z,49.10
2018-09-05T02:33:01.746Z,51.50
2018-09-05T02:33:36.869Z,51.50
2018-09-05T02:34:12.280Z,47.00
2018-09-05T02:34:47.578Z,47.50
2018-09-05T02:35:22.989Z,49.20
2018-09-05T02:35:58.328Z,47.80
2018-09-05T02:36:33.623Z,50.80
2018-09-05T02:37:09.026Z,51.20
2018-09-05T02:37:44.235Z,52.20
2018-09-05T02:38:19.537Z,49.30
2018-09-05T02:38:54.940Z,45.80
2018-09-05T02:39:30.127Z,51.30
2018-09-05T02:40:05.567Z,50.70
2018-09-05T02:40:41.120Z,49.30
2018-09-05T02:41:16.852Z,47.80
2018-09-05T02:41:52.076Z,49.20
2018-09-05T02:42:27.351Z,48.70
2018-09-05T02:43:02.669Z,49.70
2018-09-05T02:43:38.172Z,49.70
2018-09-05T02:44:13.385Z,45.70
2018-09-05T02:44:48.696Z,46.90
2018-09-05T02:45:24.097Z,50.20
2018-09-05T02:45:59.414Z,51.30
2018-09-05T02:46:35.248Z,52.30
2018-09-05T02:47:10.364Z,59.00
2018-09-05T02:47:45.799Z,60.40
2018-09-05T02:48:21.130Z,55.60
2018-09-05T02:48:56.355Z,51.60
2018-09-05T02:49:31.843Z,47.80
2018-09-05T02:50:07.144Z,50.20
2018-09-05T02:50:42.244Z,50.60
2018-09-05T02:51:17.599Z,49.70
2018-09-05T02:51:53.144Z,51.10
2018-09-05T02:52:28.211Z,48.20
2018-09-05T02:53:03.430Z,46.50
2018-09-05T02:53:38.718Z,48.60
2018-09-05T02:54:13.825Z,48.00
2018-09-05T02:54:48.950Z,49.40
2018-09-05T02:55:24.357Z,50.60
2018-09-05T02:55:59.788Z,49.20
2018-09-05T02:56:35.164Z,49.70
2018-09-05T02:57:10.481Z,48.80
2018-09-05T02:57:45.679Z,46.10
2018-09-05T02:58:21.360Z,46.20
2018-09-05T02:58:56.708Z,46.20
2018-09-05T02:59:32.117Z,51.40
2018-09-05T03:00:07.641Z,50.90
2018-09-05T03:00:44.176Z,50.90
2018-09-05T03:01:19.607Z,52.90
2018-09-05T03:01:54.832Z,54.90
2018-09-05T03:02:30.177Z,52.20
2018-09-05T03:03:06.201Z,48.50
2018-09-05T03:03:41.492Z,49.30
2018-09-05T03:04:17.029Z,47.70
2018-09-05T03:04:52.394Z,50.10
2018-09-05T03:05:27.592Z,56.10
2018-09-05T03:06:02.905Z,54.80
2018-09-05T03:06:38.628Z,45.70
2018-09-05T03:07:13.863Z,48.50
2018-09-05T03:07:49.070Z,51.10
2018-09-05T03:08:24.576Z,48.70
2018-09-05T03:08:59.957Z,47.40
2018-09-05T03:09:35.484Z,49.40
2018-09-05T03:10:10.914Z,52.50
2018-09-05T03:10:46.204Z,52.40
2018-09-05T03:11:21.632Z,49.50
2018-09-05T03:11:57.073Z,51.90
2018-09-05T03:12:32.593Z,52.80
2018-09-05T03:13:08.044Z,50.60
2018-09-05T03:13:43.947Z,52.30
2018-09-05T03:14:19.273Z,54.30
2018-09-05T03:14:54.954Z,49.80
2018-09-05T03:15:30.293Z,56.00
2018-09-05T03:16:05.611Z,52.20
2018-09-05T03:16:41.223Z,52.90
2018-09-05T03:17:16.447Z,49.50
2018-09-05T03:17:51.629Z,50.30
2018-09-05T03:18:26.859Z,50.60
2018-09-05T03:19:04.107Z,50.30
2018-09-05T03:19:37.592Z,49.50
2018-09-05T03:20:12.863Z,49.20
2018-09-05T03:20:48.080Z,49.40
2018-09-05T03:21:23.673Z,51.70
2018-09-05T03:21:58.859Z,51.80
2018-09-05T03:22:33.980Z,44.00
2018-09-05T03:23:09.596Z,48.70
2018-09-05T03:23:45.107Z,50.70
2018-09-05T03:24:20.701Z,50.00
2018-09-05T03:24:56.017Z,49.80
2018-09-05T03:25:31.424Z,48.70
2018-09-05T03:26:06.739Z,51.70
2018-09-05T03:26:42.130Z,53.50
2018-09-05T03:27:17.647Z,50.40
2018-09-05T03:27:53.139Z,48.70
2018-09-05T03:28:28.454Z,46.30
2018-09-05T03:29:03.681Z,53.10
2018-09-05T03:29:39.290Z,63.40
2018-09-05T03:30:14.985Z,56.80
2018-09-05T03:30:50.371Z,47.90
2018-09-05T03:31:25.605Z,48.70
2018-09-05T03:32:01.104Z,49.50
2018-09-05T03:32:36.439Z,47.70
2018-09-05T03:33:11.689Z,50.30
2018-09-05T03:33:47.212Z,47.30
2018-09-05T03:34:22.575Z,45.40
2018-09-05T03:34:58.165Z,45.70
2018-09-05T03:35:33.604Z,45.50
2018-09-05T03:36:09.220Z,46.50
2018-09-05T03:36:44.925Z,50.60
2018-09-05T03:37:20.444Z,50.60
2018-09-05T03:37:55.547Z,49.20
2018-09-05T03:38:30.769Z,44.60
2018-09-05T03:39:05.996Z,49.20
2018-09-05T03:39:41.425Z,50.20
2018-09-05T03:40:16.942Z,48.20
2018-09-05T03:40:52.145Z,47.70
2018-09-05T03:41:27.554Z,48.10
2018-09-05T03:42:02.734Z,48.40
2018-09-05T03:42:38.268Z,50.60
2018-09-05T03:43:13.483Z,50.10
2018-09-05T03:43:49.486Z,50.10
2018-09-05T03:44:25.120Z,47.90
2018-09-05T03:45:00.441Z,49.40
2018-09-05T03:45:35.943Z,45.00
2018-09-05T03:46:11.574Z,51.40
2018-09-05T03:46:46.566Z,48.70
2018-09-05T03:47:21.896Z,43.80
2018-09-05T03:47:57.195Z,47.00
2018-09-05T03:48:32.306Z,43.80
2018-09-05T03:49:07.503Z,46.00
2018-09-05T03:49:43.224Z,49.10
2018-09-05T03:50:18.544Z,54.00
2018-09-05T03:50:53.817Z,50.10
2018-09-05T03:51:29.146Z,49.60
2018-09-05T03:52:04.275Z,46.00
2018-09-05T03:52:39.615Z,45.80
2018-09-05T03:53:14.828Z,48.60
2018-09-05T03:53:50.151Z,51.10
2018-09-05T03:54:25.689Z,47.90
2018-09-05T03:55:01.270Z,49.30
2018-09-05T03:55:36.337Z,52.80
2018-09-05T03:56:11.751Z,51.90
2018-09-05T03:56:47.074Z,55.90
2018-09-05T03:57:22.208Z,52.20
2018-09-05T03:57:57.761Z,51.30
2018-09-05T03:58:32.964Z,47.90
2018-09-05T03:59:08.383Z,46.30
2018-09-05T03:59:43.616Z,47.60
2018-09-05T04:00:18.727Z,49.60
2018-09-05T04:00:54.085Z,46.10
2018-09-05T04:01:29.397Z,47.00
2018-09-05T04:02:04.806Z,48.30
2018-09-05T04:02:40.048Z,46.60
2018-09-05T04:03:15.369Z,51.30
2018-09-05T04:03:50.600Z,50.10
2018-09-05T04:04:25.929Z,51.80
2018-09-05T04:05:01.237Z,51.30
2018-09-05T04:05:36.619Z,49.30
2018-09-05T04:06:11.923Z,53.00
2018-09-05T04:06:47.420Z,50.90
2018-09-05T04:07:22.935Z,46.60
2018-09-05T04:07:58.338Z,47.60
2018-09-05T04:08:33.557Z,52.30
2018-09-05T04:09:08.843Z,52.20
2018-09-05T04:09:44.371Z,48.80
2018-09-05T04:10:19.870Z,50.60
2018-09-05T04:10:55.301Z,47.70
2018-09-05T04:11:30.945Z,50.30
2018-09-05T04:12:06.274Z,54.50
2018-09-05T04:12:41.747Z,50.90
2018-09-05T04:13:17.418Z,48.20
2018-09-05T04:13:52.633Z,48.20
2018-09-05T04:14:28.048Z,49.10
2018-09-05T04:15:03.260Z,49.90
2018-09-05T04:15:38.665Z,49.50
2018-09-05T04:16:13.840Z,45.60
2018-09-05T04:16:49.294Z,46.90
2018-09-05T04:17:24.922Z,52.80
2018-09-05T04:18:00.116Z,51.10
2018-09-05T04:18:35.472Z,48.40
2018-09-05T04:19:10.765Z,48.90
2018-09-05T04:19:46.410Z,46.90
2018-09-05T04:20:21.690Z,49.60
2018-09-05T04:20:57.318Z,52.50
2018-09-05T04:21:32.847Z,52.60
2018-09-05T04:22:08.235Z,50.00
2018-09-05T04:22:43.442Z,46.60
2018-09-05T04:23:18.680Z,46.20
2018-09-05T04:23:54.290Z,44.90
2018-09-05T04:24:29.604Z,45.00
2018-09-05T04:25:04.772Z,48.50
2018-09-05T04:25:40.286Z,46.10
2018-09-05T04:26:15.583Z,46.40
2018-09-05T04:26:50.791Z,51.50
2018-09-05T04:27:26.124Z,51.50
2018-09-05T04:28:01.323Z,46.30
2018-09-05T04:28:36.767Z,46.20
2018-09-05T04:29:11.961Z,46.20
2018-09-05T04:29:47.212Z,46.60
2018-09-05T04:30:22.473Z,46.50
2018-09-05T04:30:57.797Z,51.90
2018-09-05T04:31:33.106Z,52.00
2018-09-05T04:32:08.611Z,45.90
2018-09-05T04:32:44.141Z,45.20
2018-09-05T04:33:19.441Z,47.90
2018-09-05T04:33:54.850Z,47.90
2018-09-05T04:34:30.465Z,47.20
2018-09-05T04:35:05.561Z,46.10
2018-09-05T04:35:41.075Z,47.50
2018-09-05T04:36:16.759Z,45.90
2018-09-05T04:36:51.988Z,45.30
2018-09-05T04:37:27.424Z,51.30
2018-09-05T04:38:02.842Z,55.40
2018-09-05T04:38:38.647Z,53.80
2018-09-05T04:39:13.823Z,51.30
2018-09-05T04:39:49.027Z,51.30
2018-09-05T04:40:24.537Z,51.30
2018-09-05T04:40:59.919Z,52.40
2018-09-05T04:41:35.243Z,53.40
2018-09-05T04:42:10.891Z,48.60
2018-09-05T04:42:46.091Z,49.90
2018-09-05T04:43:21.609Z,50.50
2018-09-05T04:43:56.924Z,49.20
2018-09-05T04:44:32.241Z,50.30
2018-09-05T04:45:07.557Z,52.50
2018-09-05T04:45:42.846Z,51.60
2018-09-05T04:46:18.146Z,47.90
2018-09-05T04:46:53.544Z,52.70
2018-09-05T04:47:28.925Z,55.30
2018-09-05T04:48:03.977Z,52.30
2018-09-05T04:48:39.209Z,50.80
2018-09-05T04:49:14.617Z,48.90
2018-09-05T04:49:50.326Z,51.70
2018-09-05T04:50:25.644Z,54.10
2018-09-05T04:51:00.884Z,54.50
2018-09-05T04:51:36.171Z,52.80
2018-09-05T04:52:11.470Z,51.00
2018-09-05T04:52:47.236Z,53.60
2018-09-05T04:53:22.206Z,47.20
2018-09-05T04:53:57.565Z,44.60
2018-09-05T04:54:32.835Z,48.10
2018-09-05T04:55:08.461Z,51.70
2018-09-05T04:55:43.951Z,54.90
2018-09-05T04:56:19.310Z,49.50
2018-09-05T04:56:54.720Z,49.80
2018-09-05T04:57:29.902Z,49.80
2018-09-05T04:58:05.517Z,47.00
2018-09-05T04:58:41.432Z,52.50
2018-09-05T04:59:16.880Z,51.60
2018-09-05T04:59:52.000Z,44.80
2018-09-05T05:00:27.089Z,52.90
2018-09-05T05:01:02.303Z,55.30
2018-09-05T05:01:37.814Z,49.40
2018-09-05T05:02:13.229Z,54.00
2018-09-05T05:02:48.553Z,53.70
2018-09-05T05:03:24.037Z,53.20
2018-09-05T05:03:59.662Z,51.60
2018-09-05T05:04:35.039Z,49.00
2018-09-05T05:05:10.313Z,53.30
2018-09-05T05:05:45.691Z,53.70
2018-09-05T05:06:21.140Z,49.80
2018-09-05T05:06:56.349Z,52.30
2018-09-05T05:07:31.750Z,47.40
2018-09-05T05:08:07.191Z,43.60
2018-09-05T05:08:42.566Z,48.00
2018-09-05T05:09:18.071Z,51.80
2018-09-05T05:09:53.334Z,52.20
2018-09-05T05:10:28.625Z,48.30
2018-09-05T05:11:03.926Z,51.00
2018-09-05T05:11:39.432Z,55.30
2018-09-05T05:12:14.753Z,51.20
2018-09-05T05:12:50.154Z,52.50
2018-09-05T05:13:25.754Z,50.20
2018-09-05T05:14:01.482Z,49.30
2018-09-05T05:14:36.864Z,51.80
2018-09-05T05:15:12.244Z,48.00
2018-09-05T05:15:47.643Z,49.40
2018-09-05T05:16:22.828Z,50.40
2018-09-05T05:16:58.149Z,48.40
2018-09-05T05:17:33.471Z,47.60
2018-09-05T05:18:08.987Z,48.10
2018-09-05T05:18:44.322Z,49.40
2018-09-05T05:19:19.541Z,52.10
2018-09-05T05:19:54.948Z,50.10
2018-09-05T05:20:30.579Z,46.40
2018-09-05T05:21:05.778Z,47.80
2018-09-05T05:21:40.951Z,51.50
2018-09-05T05:22:16.360Z,48.60
2018-09-05T05:22:51.772Z,51.00
2018-09-05T05:23:26.998Z,52.40
2018-09-05T05:24:02.260Z,49.30
2018-09-05T05:24:37.546Z,46.70
2018-09-05T05:25:12.649Z,50.80
2018-09-05T05:25:47.984Z,48.80
2018-09-05T05:26:23.155Z,46.60
2018-09-05T05:26:58.689Z,51.00
2018-09-05T05:27:33.986Z,51.00
2018-09-05T05:28:09.301Z,43.90
2018-09-05T05:28:44.699Z,41.40
2018-09-05T05:29:19.982Z,41.00
2018-09-05T05:29:55.318Z,43.90
2018-09-05T05:30:30.710Z,44.60
2018-09-05T05:31:06.075Z,47.00
2018-09-05T05:31:41.474Z,47.30
2018-09-05T05:32:17.002Z,42.70
2018-09-05T05:32:52.383Z,42.40
2018-09-05T05:33:27.884Z,42.70
2018-09-05T05:34:03.439Z,45.00
2018-09-05T05:34:39.532Z,42.90
2018-09-05T05:35:15.069Z,41.90
2018-09-05T05:35:50.279Z,44.30
2018-09-05T05:36:25.711Z,42.90
2018-09-05T05:37:01.145Z,38.50
2018-09-05T05:37:36.834Z,36.50
2018-09-05T05:38:12.179Z,38.50
2018-09-05T05:38:47.786Z,43.60
2018-09-05T05:39:23.190Z,43.90
2018-09-05T05:40:02.178Z,40.90
2018-09-05T05:40:38.027Z,41.40
2018-09-05T05:41:13.539Z,37.90
2018-09-05T05:41:48.703Z,37.00
2018-09-05T05:42:23.821Z,38.70
2018-09-05T05:42:59.165Z,37.70
2018-09-05T05:43:34.680Z,37.10
2018-09-05T05:44:09.903Z,36.30
2018-09-05T05:44:45.725Z,35.80
2018-09-05T05:45:21.015Z,36.90
2018-09-05T05:45:56.326Z,37.20
2018-09-05T05:46:31.825Z,36.00
2018-09-05T05:47:07.133Z,37.00
2018-09-05T05:47:42.312Z,34.80
2018-09-05T05:48:17.656Z,33.60
2018-09-05T05:48:53.249Z,36.00
2018-09-05T05:49:28.765Z,36.30
2018-09-05T05:50:04.089Z,32.90
2018-09-05T05:50:39.378Z,35.00
2018-09-05T05:51:14.703Z,35.30
2018-09-05T05:51:49.918Z,37.30
2018-09-05T05:52:25.707Z,35.10
2018-09-05T05:53:01.035Z,32.20
2018-09-05T05:53:36.259Z,38.90
2018-09-05T05:54:11.782Z,35.80
2018-09-05T05:54:48.179Z,32.60
2018-09-05T05:55:23.392Z,33.60
2018-09-05T05:55:59.084Z,32.40
2018-09-05T05:56:34.430Z,31.00
2018-09-05T05:57:09.900Z,34.50
2018-09-05T05:57:45.614Z,33.80
2018-09-05T05:58:20.839Z,32.30
2018-09-05T05:58:56.076Z,31.10
2018-09-05T05:59:31.399Z,32.30
2018-09-05T06:00:06.809Z,35.90
2018-09-05T06:00:42.117Z,32.30
2018-09-05T06:01:17.848Z,30.80
2018-09-05T06:01:53.140Z,32.70
2018-09-05T06:02:28.552Z,29.20
2018-09-05T06:03:04.079Z,29.10
2018-09-05T06:03:39.471Z,33.50
2018-09-05T06:04:14.708Z,34.50
2018-09-05T06:04:50.138Z,33.60
2018-09-05T06:05:25.666Z,31.50
2018-09-05T06:06:01.452Z,30.70
2018-09-05T06:06:36.699Z,29.50
2018-09-05T06:07:12.231Z,28.10
2018-09-05T06:07:47.609Z,27.30
2018-09-05T06:08:23.069Z,30.10
2018-09-05T06:08:58.470Z,29.90
2018-09-05T06:09:33.662Z,27.90
2018-09-05T06:10:09.077Z,26.90
2018-09-05T06:10:44.964Z,29.90
2018-09-05T06:11:20.196Z,30.40
2018-09-05T06:11:55.628Z,29.30
2018-09-05T06:12:30.918Z,27.20
2018-09-05T06:13:05.914Z,27.90
2018-09-05T06:13:41.221Z,29.20
2018-09-05T06:14:16.567Z,27.60
2018-09-05T06:14:51.855Z,27.90
2018-09-05T06:15:27.546Z,27.70
2018-09-05T06:16:02.784Z,29.80
2018-09-05T06:16:37.883Z,30.20
2018-09-05T06:17:13.285Z,29.20
2018-09-05T06:17:48.855Z,27.90
2018-09-05T06:18:24.028Z,26.00
2018-09-05T06:18:59.412Z,27.30
2018-09-05T06:19:35.028Z,26.80
2018-09-05T06:20:10.449Z,25.80
2018-09-05T06:20:45.865Z,27.10
2018-09-05T06:21:21.277Z,27.10
2018-09-05T06:21:56.373Z,25.70
2018-09-05T06:22:31.501Z,28.20
2018-09-05T06:23:06.813Z,27.30
2018-09-05T06:23:41.999Z,26.90
2018-09-05T06:24:17.411Z,25.70
2018-09-05T06:24:52.922Z,25.30
2018-09-05T06:25:28.246Z,26.90
2018-09-05T06:26:03.765Z,26.90
2018-09-05T06:26:39.470Z,23.90
2018-09-05T06:27:14.735Z,28.40
2018-09-05T06:27:50.311Z,25.90
2018-09-05T06:28:25.872Z,28.20
2018-09-05T06:29:01.403Z,26.00
2018-09-05T06:29:36.567Z,26.00
2018-09-05T06:30:12.076Z,26.40
2018-09-05T06:30:51.376Z,22.70
2018-09-05T06:31:26.509Z,26.70
2018-09-05T06:32:01.608Z,26.10
2018-09-05T06:32:36.956Z,25.90
2018-09-05T06:33:12.356Z,39.40
2018-09-05T06:33:47.729Z,41.90
2018-09-05T06:34:23.273Z,39.50
2018-09-05T06:34:58.599Z,34.60
2018-09-05T06:35:34.367Z,27.90
2018-09-05T06:36:09.572Z,34.70
2018-09-05T06:36:45.039Z,31.80
2018-09-05T06:37:20.181Z,30.30
2018-09-05T06:37:55.613Z,38.50
2018-09-05T06:38:31.002Z,31.20
2018-09-05T06:39:06.341Z,29.50
2018-09-05T06:39:41.423Z,28.50
2018-09-05T06:40:17.129Z,27.50
2018-09-05T06:40:53.421Z,24.50
2018-09-05T06:41:28.739Z,24.20
2018-09-05T06:42:04.150Z,23.40
2018-09-05T06:42:39.532Z,22.80
2018-09-05T06:43:14.969Z,26.10
2018-09-05T06:43:50.153Z,22.00
2018-09-05T06:44:25.698Z,21.40
2018-09-05T06:45:00.991Z,22.50
2018-09-05T06:45:36.455Z,23.90
2018-09-05T06:46:11.861Z,20.90
2018-09-05T06:46:47.464Z,21.80
2018-09-05T06:47:22.889Z,22.90
2018-09-05T06:47:58.264Z,22.40
2018-09-05T06:48:33.674Z,27.60
2018-09-05T06:49:08.902Z,29.60
2018-09-05T06:49:44.106Z,24.00
2018-09-05T06:50:19.346Z,22.60
2018-09-05T06:50:54.582Z,22.90
2018-09-05T06:51:29.878Z,19.00
2018-09-05T06:52:05.214Z,24.20
2018-09-05T06:52:41.117Z,24.20
2018-09-05T06:53:16.526Z,21.70
2018-09-05T06:53:52.550Z,26.10
2018-09-05T06:54:28.195Z,25.00
2018-09-05T06:55:03.592Z,23.50
2018-09-05T06:55:39.140Z,19.00
2018-09-05T06:56:14.652Z,19.20
2018-09-05T06:56:50.275Z,28.00
2018-09-05T06:57:25.683Z,28.70
2018-09-05T06:58:01.187Z,22.70
2018-09-05T06:58:36.723Z,23.30
2018-09-05T06:59:12.136Z,21.50
2018-09-05T06:59:47.345Z,20.80
2018-09-05T07:00:22.470Z,21.00
2018-09-05T07:00:58.097Z,20.60
2018-09-05T07:01:33.443Z,22.30
2018-09-05T07:02:08.894Z,25.20
2018-09-05T07:02:44.194Z,23.60
2018-09-05T07:03:19.711Z,21.60
2018-09-05T07:03:54.987Z,22.50
2018-09-05T07:04:30.023Z,22.70
2018-09-05T07:05:05.321Z,24.90
2018-09-05T07:05:40.520Z,25.70
2018-09-05T07:06:15.880Z,24.70
2018-09-05T07:06:50.962Z,22.20
2018-09-05T07:07:26.496Z,25.10
2018-09-05T07:08:01.678Z,27.90
2018-09-05T07:08:37.021Z,24.90
2018-09-05T07:09:12.374Z,22.70
2018-09-05T07:09:47.676Z,21.50
2018-09-05T07:10:23.175Z,22.50
2018-09-05T07:10:58.694Z,23.70
2018-09-05T07:11:35.288Z,20.20
2018-09-05T07:12:10.714Z,20.00
2018-09-05T07:12:45.818Z,23.20
2018-09-05T07:13:21.148Z,24.50
2018-09-05T07:13:56.763Z,21.70
2018-09-05T07:14:32.144Z,19.70
2018-09-05T07:15:07.427Z,17.90
2018-09-05T07:15:42.863Z,18.90
2018-09-05T07:16:18.303Z,23.80
2018-09-05T07:16:53.726Z,26.20
2018-09-05T07:17:29.277Z,18.80
2018-09-05T07:18:04.643Z,18.60
2018-09-05T07:18:39.944Z,18.60
2018-09-05T07:19:15.560Z,20.10
2018-09-05T07:19:50.777Z,19.00
2018-09-05T07:20:26.220Z,19.40
2018-09-05T07:21:05.685Z,19.20
2018-09-05T07:21:37.021Z,21.90
2018-09-05T07:22:12.493Z,17.40
2018-09-05T07:22:47.804Z,20.40
2018-09-05T07:23:23.124Z,20.90
2018-09-05T07:23:58.556Z,18.30
2018-09-05T07:24:33.903Z,17.10
2018-09-05T07:25:09.235Z,18.10
2018-09-05T07:25:44.638Z,19.30
2018-09-05T07:26:20.045Z,19.80
2018-09-05T07:26:55.633Z,17.90
2018-09-05T07:27:31.024Z,18.40
2018-09-05T07:28:06.228Z,16.20
2018-09-05T07:28:41.748Z,17.20
2018-09-05T07:29:17.164Z,17.10
2018-09-05T07:29:52.576Z,17.00
2018-09-05T07:30:28.099Z,19.10
2018-09-05T07:31:03.237Z,19.80
2018-09-05T07:31:38.879Z,22.50
2018-09-05T07:32:14.306Z,24.10
2018-09-05T07:32:49.937Z,18.60
2018-09-05T07:33:25.164Z,20.20
2018-09-05T07:34:00.467Z,22.00
2018-09-05T07:34:36.139Z,19.20
2018-09-05T07:35:11.673Z,20.40
2018-09-05T07:35:47.334Z,19.40